Time;durP1;ratioP1;P1;durP2;ratioP2;P2;SDS_P1;SDS_P2;PMS_P1;PMS_P2;Temp;Humidity;BMP_temperature;BMP_pressure;BME280_temperature;BME280_humidity;BME280_pressure;Samples;Min_cycle;Max_cycle;Signal;HPM_P1;HPM_P2
2021/06/04 00:01:08;;;;;;;28.92;20.58;;;;;;;-150.07;57.81;62495.78;5029570;28;20021;-89
2021/06/04 00:03:36;;;;;;;26.98;20.73;;;;;;;-150.07;56.51;62064.63;5030527;28;20038;-89
2021/06/04 00:06:04;;;;;;;25.45;21.38;;;;;;;-150.07;56.13;62175.56;5020979;28;20034;-91
2021/06/04 00:08:31;;;;;;;26.45;22.02;;;;;;;-150.07;56.49;62114.88;5015342;28;20064;-90
2021/06/04 00:11:04;;;;;;;24.20;21.00;;;;;;;-150.07;57.28;62098.13;5035375;28;20033;-92
2021/06/04 00:13:32;;;;;;;26.75;21.55;;;;;;;-150.07;57.15;62106.50;5037052;28;20017;-91
2021/06/04 00:16:14;;;;;;;29.85;22.67;;;;;;;-150.07;56.86;62144.16;5028488;28;20104;-92
2021/06/04 00:18:42;;;;;;;29.38;22.17;;;;;;;-150.07;57.15;62181.84;5013333;28;20088;-91
2021/06/04 00:21:16;;;;;;;25.73;22.10;;;;;;;-150.07;55.87;62110.69;5021874;28;20060;-90
2021/06/04 00:23:43;;;;;;;25.45;21.20;;;;;;;-150.07;55.88;61893.03;5019371;28;20387;-92
2021/06/04 00:26:12;;;;;;;29.15;23.48;;;;;;;-150.07;56.28;62793.00;5017301;28;20529;-91
2021/06/04 00:28:39;;;;;;;32.85;25.48;;;;;;;-150.07;56.43;61867.91;5016438;28;20080;-92
2021/06/04 00:31:07;;;;;;;34.25;23.27;;;;;;;-150.07;55.91;62144.16;5016959;28;20395;-77
2021/06/04 00:33:35;;;;;;;34.28;24.00;;;;;;;-150.07;55.75;62148.34;5012127;28;20022;-78
2021/06/04 00:36:04;;;;;;;35.13;23.48;;;;;;;-150.07;55.58;62029.06;5011257;28;20026;-77
2021/06/04 00:38:31;;;;;;;32.97;23.15;;;;;;;-150.07;55.37;62085.56;5011570;28;20035;-77
2021/06/04 00:41:03;;;;;;;29.02;22.75;;;;;;;-150.07;55.69;62175.56;5012116;28;20041;-76
2021/06/04 00:43:30;;;;;;;35.78;27.15;;;;;;;-150.07;56.37;62173.47;5011899;28;20040;-77
2021/06/04 00:45:57;;;;;;;35.53;25.15;;;;;;;-150.07;56.10;61909.78;5010681;28;20049;-79
2021/06/04 00:48:28;;;;;;;34.63;25.73;;;;;;;-150.07;56.09;62221.59;5011914;28;20461;-85
2021/06/04 00:51:16;;;;;;;28.52;23.60;;;;;;;-150.07;55.62;62206.94;4996182;28;20790;-80
2021/06/04 00:53:43;;;;;;;31.95;24.58;;;;;;;-150.07;55.36;61930.69;4977846;28;20038;-78
2021/06/04 00:56:12;;;;;;;31.30;24.52;;;;;;;-150.07;56.10;62146.25;5002392;28;20449;-78
2021/06/04 00:58:43;;;;;;;30.98;24.38;;;;;;;-150.07;56.31;62261.38;5011955;28;20053;-77
2021/06/04 01:01:11;;;;;;;35.50;25.33;;;;;;;-150.07;55.97;62255.09;5011850;28;20029;-78
2021/06/04 01:03:41;;;;;;;28.48;24.27;;;;;;;-150.07;55.60;62232.06;5011725;28;20037;-78
2021/06/04 01:06:15;;;;;;;31.83;24.50;;;;;;;-150.07;56.19;62296.94;5011923;28;20135;-77
2021/06/04 01:08:52;;;;;;;33.80;26.13;;;;;;;-150.07;55.40;62382.75;5008565;28;20022;-78
2021/06/04 01:11:37;;;;;;;33.70;23.63;;;;;;;-150.07;55.14;62370.19;5002340;28;20025;-77
2021/06/04 01:14:25;;;;;;;29.95;23.40;;;;;;;-150.07;55.07;62474.84;5011656;28;20185;-79
2021/06/04 01:17:06;;;;;;;30.38;25.13;;;;;;;-150.07;54.40;62491.59;5011511;28;20108;-79
2021/06/04 01:20:08;;;;;;;29.75;24.20;;;;;;;-150.07;54.32;62351.38;5011186;28;20109;-81
2021/06/04 01:22:53;;;;;;;32.92;24.15;;;;;;;-150.07;54.72;62441.38;4997934;28;20022;-77
2021/06/04 01:25:32;;;;;;;34.47;24.48;;;;;;;-150.07;55.09;62409.97;5010755;28;20039;-82
2021/06/04 01:28:07;;;;;;;34.05;23.65;;;;;;;-150.07;54.96;62347.19;5010141;28;20132;-79
2021/06/04 01:30:43;;;;;;;38.78;24.27;;;;;;;-150.07;55.91;62361.84;5011139;28;20030;-78
2021/06/04 01:33:27;;;;;;;31.48;26.50;;;;;;;-150.07;55.95;62391.13;5011475;28;20514;-77
2021/06/04 01:35:58;;;;;;;45.38;27.13;;;;;;;-150.07;55.28;62328.34;5011604;28;20050;-79
2021/06/04 01:38:31;;;;;;;33.88;26.83;;;;;;;-150.07;57.27;62177.66;5002509;28;20026;-78
2021/06/04 01:41:02;;;;;;;36.70;26.80;;;;;;;-150.07;55.79;62041.63;5006551;28;20128;-78
2021/06/04 01:43:36;;;;;;;32.55;26.58;;;;;;;-150.07;55.55;62345.09;5011290;28;20030;-78
2021/06/04 01:46:12;;;;;;;43.35;30.35;;;;;;;-150.07;56.04;62315.78;5009732;28;20177;-78
2021/06/04 01:48:43;;;;;;;43.33;29.98;;;;;;;-150.07;56.11;62336.72;5011086;28;20018;-78
2021/06/04 01:51:26;;;;;;;41.45;30.25;;;;;;;-150.07;57.47;62236.25;5011616;28;20034;-78
2021/06/04 01:54:01;;;;;;;43.35;29.98;;;;;;;-150.07;56.61;62093.94;5009229;28;20030;-78
2021/06/04 01:56:44;;;;;;;41.85;28.80;;;;;;;-150.07;57.61;62269.75;5006990;28;20030;-78
2021/06/04 01:59:23;;;;;;;44.92;29.13;;;;;;;-150.07;57.07;62294.84;5010584;28;20026;-80
2021/06/04 02:01:52;;;;;;;52.03;30.30;;;;;;;-150.07;57.14;62219.50;5010760;28;20141;-78
2021/06/04 02:04:25;;;;;;;45.38;31.02;;;;;;;-150.07;57.19;62232.06;5010938;28;20034;-78
2021/06/04 02:06:53;;;;;;;59.17;31.88;;;;;;;-150.07;57.15;62196.50;5010933;28;20119;-77
2021/06/04 02:09:24;;;;;;;47.47;30.20;;;;;;;-150.07;55.84;62399.50;5010908;28;20114;-77
2021/06/04 02:11:51;;;;;;;50.35;29.23;;;;;;;-150.07;55.75;62908.16;5002209;28;20026;-78
2021/06/04 02:14:28;;;;;;;49.78;30.05;;;;;;;-150.07;55.19;62420.44;5004980;28;20037;-77
2021/06/04 02:17:21;;;;;;;46.83;30.98;;;;;;;-150.07;55.63;62343.00;4991312;28;20030;-77
2021/06/04 02:19:54;;;;;;;49.75;31.30;;;;;;;-150.07;55.54;62232.06;5007946;28;20387;-78
2021/06/04 02:22:43;;;;;;;47.72;29.73;;;;;;;-150.07;55.60;62366.03;5010898;28;20072;-78
2021/06/04 02:25:28;;;;;;;47.75;28.63;;;;;;;-150.07;54.72;62447.66;5000836;28;20125;-77
2021/06/04 02:28:03;;;;;;;48.95;31.27;;;;;;;-150.07;56.23;62236.25;4995132;28;20037;-78
2021/06/04 02:31:05;;;;;;;54.70;32.30;;;;;;;-150.07;54.68;63048.41;5010136;28;20417;-78
2021/06/04 02:33:40;;;;;;;48.50;29.08;;;;;;;-150.07;54.60;62485.31;5000444;28;20052;-77
2021/06/04 02:36:21;;;;;;;42.05;27.63;;;;;;;-150.07;54.25;62409.97;5010705;28;20022;-78
2021/06/04 02:39:06;;;;;;;42.88;29.60;;;;;;;-150.07;55.17;62382.75;5011290;28;20196;-93
2021/06/04 02:41:38;;;;;;;44.28;29.08;;;;;;;-150.07;54.81;62864.19;4997763;28;20030;-88
2021/06/04 02:44:15;;;;;;;46.65;28.98;;;;;;;-150.07;55.45;62384.84;5009602;28;20030;-87
2021/06/04 02:46:50;;;;;;;50.67;29.67;;;;;;;-150.07;53.89;62355.56;5002993;28;20479;-85
2021/06/04 02:49:19;;;;;;;46.47;28.10;;;;;;;-150.07;54.27;62516.72;5010862;28;20029;-87
2021/06/04 02:52:09;;;;;;;38.85;25.48;;;;;;;-150.07;52.23;62458.13;5011234;28;20071;-86
2021/06/04 02:54:42;;;;;;;43.40;25.33;;;;;;;-150.07;52.66;62412.06;4994517;28;20438;-88
2021/06/04 02:57:15;;;;;;;37.13;23.63;;;;;;;-150.07;49.85;62596.25;5009850;28;20133;-89
2021/06/04 02:59:46;;;;;;;43.20;24.35;;;;;;;-150.07;50.89;63209.59;4995816;28;20391;-89
2021/06/04 03:02:20;;;;;;;50.53;24.10;;;;;;;-150.07;49.90;63203.31;5013574;28;20045;-88
2021/06/04 03:04:50;;;;;;;38.28;20.58;;;;;;;-150.07;48.71;62654.88;5015725;28;20034;-88
2021/06/04 03:07:25;;;;;;;30.13;19.75;;;;;;;-150.07;47.29;62608.81;5019258;28;20060;-88
2021/06/04 03:09:54;;;;;;;29.95;20.30;;;;;;;-150.07;47.88;62435.09;5020740;28;20498;-88
2021/06/04 03:12:33;;;;;;;34.00;20.70;;;;;;;-150.07;46.78;62474.84;5011333;28;20029;-88
2021/06/04 03:15:00;;;;;;;32.97;17.63;;;;;;;-150.07;47.08;63343.56;5015321;28;20034;-87
2021/06/04 03:17:31;;;;;;;29.95;18.88;;;;;;;-150.07;46.70;62625.56;5014205;28;20214;-87
2021/06/04 03:19:59;;;;;;;25.65;17.48;;;;;;;-150.07;45.26;62621.38;5013489;28;20022;-86
2021/06/04 03:22:34;;;;;;;30.45;18.70;;;;;;;-150.07;46.60;62671.59;5018256;28;20033;-87
2021/06/04 03:25:13;;;;;;;33.85;19.85;;;;;;;-150.07;45.83;62589.97;5015707;28;20053;-88
2021/06/04 03:27:40;;;;;;;33.45;21.98;;;;;;;-150.07;47.05;63335.19;5014345;28;20085;-88
2021/06/04 03:30:08;;;;;;;30.90;19.75;;;;;;;-150.07;46.21;62412.06;5012400;28;20026;-88
2021/06/04 03:32:35;;;;;;;28.55;17.48;;;;;;;-150.07;46.83;62566.94;5003570;28;20028;-88
2021/06/04 03:35:02;;;;;;;34.08;20.17;;;;;;;-150.07;46.49;62288.56;5013823;28;20029;-88
2021/06/04 03:37:29;;;;;;;37.58;20.60;;;;;;;-150.07;45.54;62361.84;5013760;28;20028;-86
2021/06/04 03:39:56;;;;;;;26.75;17.80;;;;;;;-150.07;46.40;62640.22;5013263;28;20054;-87
2021/06/04 03:42:29;;;;;;;28.73;17.63;;;;;;;-150.07;44.56;62721.84;5012967;28;20487;-87
2021/06/04 03:44:57;;;;;;;25.05;15.80;;;;;;;-150.07;45.83;63379.16;5000139;28;20042;-86
2021/06/04 03:47:24;;;;;;;30.13;17.70;;;;;;;-150.07;45.73;63477.56;5005736;28;20037;-87
2021/06/04 03:49:51;;;;;;;27.45;18.27;;;;;;;-150.07;46.12;62514.63;4994757;28;20034;-88
2021/06/04 03:52:21;;;;;;;30.88;17.70;;;;;;;-150.07;45.62;63506.88;5014689;28;20034;-86
2021/06/04 03:54:52;;;;;;;25.42;16.95;;;;;;;-150.07;45.82;62732.31;5012928;28;20473;-87
2021/06/04 03:57:23;;;;;;;22.10;15.20;;;;;;;-150.07;45.81;63517.34;5014621;28;20026;-86
2021/06/04 03:59:50;;;;;;;23.27;14.82;;;;;;;-150.07;45.52;62746.97;5012209;28;20029;-87
2021/06/04 04:02:19;;;;;;;33.53;15.93;;;;;;;-150.07;45.67;62730.22;5012503;28;20030;-87
2021/06/04 04:04:48;;;;;;;23.45;14.38;;;;;;;-150.07;45.48;62690.44;5014102;28;20038;-84
2021/06/04 04:07:15;;;;;;;25.98;15.95;;;;;;;-150.07;45.67;63575.97;5012294;28;20120;-88
2021/06/04 04:09:42;;;;;;;26.90;15.45;;;;;;;-150.07;45.95;62598.34;5014797;28;20030;-85
2021/06/04 04:12:09;;;;;;;20.40;12.90;;;;;;;-150.07;45.69;62698.81;5014156;28;20030;-87
2021/06/04 04:14:36;;;;;;;26.17;14.77;;;;;;;-150.07;45.06;62730.22;5015748;28;20038;-88
2021/06/04 04:17:03;;;;;;;24.40;13.65;;;;;;;-150.07;46.00;63241.00;5015211;28;20034;-87
2021/06/04 04:19:30;;;;;;;29.70;15.07;;;;;;;-150.07;46.38;62713.47;5013631;28;20089;-87
2021/06/04 04:21:57;;;;;;;26.52;15.43;;;;;;;-150.07;47.58;62554.41;5013589;28;20029;-88
2021/06/04 04:24:35;;;;;;;24.80;16.05;;;;;;;-150.07;48.49;63473.38;5006226;28;20487;-87
2021/06/04 04:27:03;;;;;;;29.70;16.58;;;;;;;-150.07;48.94;63075.59;4994240;28;20026;-87
2021/06/04 04:29:31;;;;;;;29.45;16.05;;;;;;;-150.07;49.79;62677.88;4998096;28;20509;-87
2021/06/04 04:32:01;;;;;;;27.42;16.55;;;;;;;-150.07;49.71;62629.75;4996191;28;20034;-88
2021/06/04 04:34:29;;;;;;;29.83;17.77;;;;;;;-150.07;49.98;62566.94;4995932;28;20038;-88
2021/06/04 04:37:00;;;;;;;30.20;15.82;;;;;;;-150.07;49.85;62604.63;5002815;28;20026;-85
2021/06/04 04:39:37;;;;;;;23.75;16.00;;;;;;;-150.07;48.99;62499.97;5012726;28;20109;-88
2021/06/04 04:42:08;;;;;;;27.58;14.27;;;;;;;-150.07;48.71;62512.53;5016651;28;20079;-88
2021/06/04 04:44:37;;;;;;;23.73;13.48;;;;;;;-150.07;48.46;62617.19;5010610;28;20027;-86
2021/06/04 04:47:08;;;;;;;21.92;13.02;;;;;;;-150.07;48.65;63418.94;5011110;28;20031;-86
2021/06/04 04:49:34;;;;;;;20.40;12.23;;;;;;;-150.07;48.24;62721.84;5013412;28;20034;-85
2021/06/04 04:52:02;;;;;;;24.58;13.02;;;;;;;-150.07;47.91;62579.50;5014864;28;20045;-85
2021/06/04 04:54:29;;;;;;;24.38;11.52;;;;;;;-150.07;47.67;62654.88;5010286;28;20046;-89
2021/06/04 04:56:56;;;;;;;27.90;12.95;;;;;;;-150.07;46.71;62516.72;5006911;28;20080;-89
2021/06/04 04:59:22;;;;;;;27.35;12.18;;;;;;;-150.07;47.09;62673.69;5017115;28;20052;-86
2021/06/04 05:01:49;;;;;;;24.40;14.15;;;;;;;-150.07;46.23;63157.25;5016760;28;20022;-86
2021/06/04 05:04:16;;;;;;;22.75;12.82;;;;;;;-150.07;46.27;62822.31;5015234;28;20510;-88
2021/06/04 05:06:43;;;;;;;26.08;12.88;;;;;;;-150.07;46.38;62581.59;5014546;28;20171;-87
2021/06/04 05:09:11;;;;;;;22.77;13.15;;;;;;;-150.07;46.67;62753.25;5015207;28;20034;-87
2021/06/04 05:11:38;;;;;;;22.92;13.85;;;;;;;-150.07;47.37;62550.22;5014904;28;20022;-88
2021/06/04 05:14:05;;;;;;;25.00;13.00;;;;;;;-150.07;47.87;62617.19;5013389;28;20030;-88
2021/06/04 05:16:32;;;;;;;25.65;13.27;;;;;;;-150.07;47.75;63548.75;5011985;28;20030;-88
2021/06/04 05:18:59;;;;;;;23.48;13.63;;;;;;;-150.07;47.06;62684.16;5011455;28;20143;-87
2021/06/04 05:21:27;;;;;;;23.75;14.93;;;;;;;-150.07;46.45;63358.22;5012089;28;20050;-87
2021/06/04 05:23:54;;;;;;;23.55;14.32;;;;;;;-150.07;46.96;63500.59;5011726;28;20030;-88
2021/06/04 05:26:21;;;;;;;24.45;14.93;;;;;;;-150.07;47.13;63665.97;5012902;28;20141;-87
2021/06/04 05:28:48;;;;;;;27.17;14.60;;;;;;;-150.07;47.01;62836.97;5013125;28;20505;-88
2021/06/04 05:31:16;;;;;;;20.92;13.95;;;;;;;-150.07;47.24;62587.88;5010264;28;20022;-85
2021/06/04 05:33:45;;;;;;;24.98;13.35;;;;;;;-150.07;48.15;63565.50;5010915;28;20387;-88
2021/06/04 05:36:19;;;;;;;17.80;11.90;;;;;;;-150.07;47.54;62709.28;5012350;28;20124;-87
2021/06/04 05:38:47;;;;;;;22.23;14.65;;;;;;;-150.07;47.32;62910.25;5013546;28;20058;-87
2021/06/04 05:41:16;;;;;;;23.92;13.65;;;;;;;-150.07;47.40;62960.47;5003305;28;20029;-87
2021/06/04 05:43:44;;;;;;;21.85;13.32;;;;;;;-150.07;47.16;62914.41;5011727;28;20030;-87
2021/06/04 05:46:14;;;;;;;23.02;12.27;;;;;;;-150.07;46.88;62719.75;5012589;28;20495;-88
2021/06/04 05:48:41;;;;;;;27.65;11.65;;;;;;;-150.07;47.55;62922.78;5011198;28;20038;-86
2021/06/04 05:51:13;;;;;;;23.48;12.13;;;;;;;-150.07;46.93;62960.47;5011306;28;20108;-87
2021/06/04 05:53:40;;;;;;;16.73;11.07;;;;;;;-150.07;46.59;62981.41;5011053;28;20592;-88
2021/06/04 05:56:09;;;;;;;19.25;11.98;;;;;;;-150.07;45.48;62914.41;5010788;28;20080;-86
2021/06/04 05:58:36;;;;;;;30.42;12.15;;;;;;;-150.07;44.57;63632.47;5011997;28;20025;-87
2021/06/04 06:01:07;;;;;;;22.45;9.98;;;;;;;-150.07;44.96;63668.06;5011140;28;20030;-87
2021/06/04 06:03:35;;;;;;;20.20;7.97;;;;;;;-150.07;43.84;63668.06;5011500;28;20037;-88
2021/06/04 06:06:03;;;;;;;12.27;6.82;;;;;;;-150.07;44.09;62788.81;5012498;28;20036;-87
2021/06/04 06:08:30;;;;;;;15.32;6.53;;;;;;;-150.07;42.25;63668.06;5015306;28;20032;-86
2021/06/04 06:10:57;;;;;;;9.52;7.32;;;;;;;-150.07;41.92;62985.59;5015080;28;20036;-87
2021/06/04 06:13:25;;;;;;;14.02;7.90;;;;;;;-150.07;41.54;63098.63;4998187;28;20031;-89
2021/06/04 06:15:53;;;;;;;10.63;6.75;;;;;;;-150.07;39.90;63113.28;4997557;28;20549;-87
2021/06/04 06:18:22;;;;;;;18.95;6.80;;;;;;;-150.07;41.07;63611.56;5003534;28;20378;-87
2021/06/04 06:20:50;;;;;;;10.80;6.90;;;;;;;-150.07;41.24;62989.78;5014378;28;20053;-86
2021/06/04 06:23:25;;;;;;;12.20;7.65;;;;;;;-150.07;41.91;63088.16;5015545;28;20030;-87
2021/06/04 06:25:56;;;;;;;20.15;8.32;;;;;;;-150.07;42.91;63094.44;5015867;28;20102;-86
2021/06/04 06:28:27;;;;;;;22.17;10.13;;;;;;;-150.07;43.61;63044.22;5015288;28;20034;-86
2021/06/04 06:30:55;;;;;;;21.52;11.88;;;;;;;-150.07;44.20;62920.69;5013308;28;20038;-87
2021/06/04 06:33:23;;;;;;;19.27;10.05;;;;;;;-150.07;44.51;62839.06;4997186;28;20422;-87
2021/06/04 06:35:58;;;;;;;19.10;8.63;;;;;;;-150.07;44.66;62991.88;5010201;28;20465;-87
2021/06/04 06:38:26;;;;;;;20.55;9.35;;;;;;;-150.07;43.93;62977.22;5011489;28;20117;-87
2021/06/04 06:40:55;;;;;;;17.13;9.13;;;;;;;-150.07;42.83;62935.34;5013007;28;20030;-88
2021/06/04 06:43:28;;;;;;;13.93;7.63;;;;;;;-150.07;43.17;62895.59;5014346;28;20454;-87
2021/06/04 06:45:57;;;;;;;14.15;8.30;;;;;;;-150.07;43.18;63659.69;5015690;28;20033;-88
2021/06/04 06:48:24;;;;;;;31.25;9.85;;;;;;;-150.07;43.34;62780.44;5025602;28;20013;-87
2021/06/04 06:50:51;;;;;;;17.17;8.63;;;;;;;-150.07;44.09;62818.13;5023954;28;20757;-87
2021/06/04 06:53:19;;;;;;;18.88;10.15;;;;;;;-150.07;43.97;62893.50;5004438;28;20022;-88
2021/06/04 06:55:46;;;;;;;15.95;8.60;;;;;;;-150.07;44.43;62640.22;5013645;28;20526;-87
2021/06/04 06:58:14;;;;;;;19.52;9.32;;;;;;;-150.07;43.53;63272.38;5029837;28;20024;-88
2021/06/04 07:00:46;;;;;;;15.48;10.40;;;;;;;-150.07;43.96;62880.94;5023541;28;20065;-87
2021/06/04 07:03:18;;;;;;;22.73;11.55;;;;;;;-150.07;44.47;62860.00;5028545;28;20030;-89
2021/06/04 07:05:44;;;;;;;14.93;8.95;;;;;;;-150.07;43.86;63603.19;5029931;28;20027;-87
2021/06/04 07:08:12;;;;;;;17.50;9.25;;;;;;;-150.07;43.76;62903.97;5030082;28;20130;-88
2021/06/04 07:10:39;;;;;;;16.77;10.18;;;;;;;-150.07;43.49;62675.78;5028812;28;20041;-87
2021/06/04 07:13:11;;;;;;;21.80;8.80;;;;;;;-150.07;44.33;62550.22;5018174;28;20630;-87
2021/06/04 07:15:39;;;;;;;15.07;10.15;;;;;;;-150.07;45.23;62849.53;5014508;28;20036;-88
2021/06/04 07:18:08;;;;;;;22.13;11.00;;;;;;;-150.07;44.75;62780.44;5016338;28;20088;-88
2021/06/04 07:20:37;;;;;;;17.70;10.13;;;;;;;-150.07;45.37;62880.94;4984674;28;20120;-82
2021/06/04 07:23:08;;;;;;;13.35;9.25;;;;;;;-150.07;45.64;62897.69;5013567;28;20112;-78
2021/06/04 07:25:38;;;;;;;23.25;11.55;;;;;;;-150.07;46.23;62780.44;5013724;28;20042;-76
2021/06/04 07:28:05;;;;;;;22.83;11.90;;;;;;;-150.07;46.58;62845.34;5014551;28;20177;-85
2021/06/04 07:30:37;;;;;;;28.75;13.50;;;;;;;-150.07;46.61;62828.59;5013716;28;20568;-82
2021/06/04 07:33:10;;;;;;;24.73;12.70;;;;;;;-150.07;47.28;62512.53;5012783;28;20045;-83
2021/06/04 07:35:37;;;;;;;21.88;14.27;;;;;;;-150.07;46.62;62784.63;5014397;28;20506;-81
2021/06/04 07:38:06;;;;;;;25.45;12.60;;;;;;;-150.07;46.17;62941.63;5014708;28;20041;-82
2021/06/04 07:40:36;;;;;;;20.33;12.07;;;;;;;-150.07;46.53;62914.41;5000699;28;20100;-79
2021/06/04 07:43:04;;;;;;;;;;;;;;;-150.07;46.59;62931.16;5006094;28;20492;-80
2021/06/04 07:45:33;;;;;;;26.55;12.65;;;;;;;-150.07;46.45;62780.44;4995190;28;19924;-84
2021/06/04 07:48:00;;;;;;;22.02;12.38;;;;;;;-150.07;46.36;62910.25;4995122;28;20026;-85
2021/06/04 07:50:28;;;;;;;21.02;12.60;;;;;;;-150.07;45.92;62883.03;5010754;28;20031;-84
2021/06/04 07:52:54;;;;;;;25.50;14.27;;;;;;;-150.07;46.03;62876.75;5019202;28;20494;-83
2021/06/04 07:55:22;;;;;;;28.30;15.05;;;;;;;-150.07;46.24;62860.00;5026407;28;20033;-82
2021/06/04 07:57:49;;;;;;;24.45;12.27;;;;;;;-150.07;46.40;63513.16;4998222;28;20041;-82
2021/06/04 08:00:21;;;;;;;23.25;12.43;;;;;;;-150.07;46.36;62895.59;5015132;28;20018;-83
2021/06/04 08:02:49;;;;;;;21.48;12.38;;;;;;;-150.07;46.08;62707.19;5015608;28;20029;-84
2021/06/04 08:05:16;;;;;;;29.10;14.90;;;;;;;-150.07;45.96;62663.22;5016643;28;20065;-85
2021/06/04 08:07:43;;;;;;;20.95;14.98;;;;;;;-150.07;45.37;62862.09;5010344;28;20372;-86
2021/06/04 08:10:11;;;;;;;23.95;14.25;;;;;;;-150.07;45.82;62767.91;5012751;28;20124;-84
2021/06/04 08:12:38;;;;;;;19.25;12.98;;;;;;;-150.07;45.40;62688.34;5020477;28;20026;-83
2021/06/04 08:15:21;;;;;;;20.88;13.77;;;;;;;-150.07;45.29;62878.84;5014529;28;20025;-84
2021/06/04 08:17:49;;;;;;;22.30;14.55;;;;;;;-150.07;45.44;62679.97;5012168;28;20030;-82
2021/06/04 08:20:23;;;;;;;22.30;13.93;;;;;;;-150.07;45.42;62776.28;5002465;28;20022;-83
2021/06/04 08:22:54;;;;;;;26.35;16.35;;;;;;;-150.07;45.29;62585.78;5009516;28;20038;-84
2021/06/04 08:25:30;;;;;;;23.70;13.68;;;;;;;-150.07;45.33;63017.00;5018733;28;20033;-84
2021/06/04 08:27:56;;;;;;;29.27;16.77;;;;;;;-150.07;45.35;63354.03;5018453;28;20033;-83
2021/06/04 08:30:24;;;;;;;26.95;14.82;;;;;;;-150.07;45.09;62638.13;5033059;28;20052;-84
2021/06/04 08:32:51;;;;;;;24.30;15.40;;;;;;;-150.07;45.42;62845.34;5035547;28;20051;-84
2021/06/04 08:35:18;;;;;;;29.73;14.50;;;;;;;-150.07;45.56;62659.03;5022297;28;20079;-84
2021/06/04 08:37:45;;;;;;;29.83;14.25;;;;;;;-150.07;45.14;63649.25;5009760;28;20037;-84
2021/06/04 08:40:20;;;;;;;30.30;15.45;;;;;;;-150.07;44.98;62788.81;5012823;28;20045;-84
2021/06/04 08:42:52;;;;;;;22.40;15.85;;;;;;;-150.07;45.31;62776.28;5011698;28;20025;-85
2021/06/04 08:45:34;;;;;;;29.02;14.02;;;;;;;-150.07;45.49;62790.91;5014570;28;20123;-84
2021/06/04 08:48:32;;;;;;;22.98;13.45;;;;;;;-150.07;46.03;62772.09;5009895;28;20149;-83
2021/06/04 08:51:31;;;;;;;28.00;15.20;;;;;;;-150.07;45.95;62845.34;5004726;28;20041;-83
2021/06/04 08:54:00;;;;;;;35.65;14.73;;;;;;;-150.07;45.79;62780.44;5019993;28;20037;-81
2021/06/04 08:56:56;;;;;;;23.20;14.40;;;;;;;-150.07;45.94;62560.66;5012977;28;20084;-83
2021/06/04 08:59:25;;;;;;;27.15;14.55;;;;;;;-150.07;45.92;62566.94;5016339;28;20037;-85
2021/06/04 09:02:00;;;;;;;26.02;14.02;;;;;;;-150.07;45.64;62763.72;5022290;28;20030;-86
2021/06/04 09:04:37;;;;;;;23.33;13.68;;;;;;;-150.07;45.74;63094.44;5022150;28;20098;-85
2021/06/04 09:07:28;;;;;;;22.17;13.43;;;;;;;-150.07;45.86;62774.19;5020509;28;20038;-86
2021/06/04 09:10:29;;;;;;;35.15;13.55;;;;;;;-150.07;45.45;62633.94;5014721;28;20134;-89
2021/06/04 09:13:08;;;;;;;25.63;12.35;;;;;;;-150.07;45.75;62788.81;5011016;28;20026;-89
2021/06/04 09:15:37;;;;;;;38.05;12.35;;;;;;;-150.07;45.72;63123.75;5032090;28;20067;-88
2021/06/04 09:18:44;;;;;;;19.38;12.20;;;;;;;-150.07;45.84;63119.56;5038068;28;20041;-85
2021/06/04 09:21:24;;;;;;;23.88;12.88;;;;;;;-150.07;45.27;62788.81;5026458;28;20394;-85
2021/06/04 09:23:50;;;;;;;;;;;;;;;-150.07;45.16;62788.81;5009499;28;20372;-89
2021/06/04 09:26:25;;;;;;;21.70;11.32;;;;;;;-150.07;44.85;62776.28;5003289;28;19968;-86
2021/06/04 09:29:06;;;;;;;24.02;12.30;;;;;;;-150.07;44.91;62790.91;5024045;28;20168;-91
2021/06/04 09:31:37;;;;;;;24.17;11.65;;;;;;;-150.07;44.61;62531.38;5023515;28;20025;-85
2021/06/04 09:34:26;;;;;;;20.30;11.02;;;;;;;-150.07;44.25;62855.81;5022366;28;20044;-89
2021/06/04 09:37:08;;;;;;;22.17;10.80;;;;;;;-150.07;44.16;62822.31;5025889;28;20033;-85
2021/06/04 09:39:51;;;;;;;21.77;10.00;;;;;;;-150.07;43.83;62797.19;5007973;28;20463;-88
2021/06/04 09:42:20;;;;;;;26.48;12.82;;;;;;;-150.07;44.70;62740.69;5012388;28;20073;-91
2021/06/04 09:44:50;;;;;;;22.75;10.75;;;;;;;-150.07;44.88;62759.53;5012016;28;20104;-85
2021/06/04 09:47:51;;;;;;;25.10;11.57;;;;;;;-150.07;44.64;63115.38;5034842;28;20101;-91
2021/06/04 09:50:23;;;;;;;25.13;10.50;;;;;;;-150.07;44.44;62807.66;5010535;28;20033;-91
2021/06/04 09:53:14;;;;;;;18.33;10.45;;;;;;;-150.07;44.42;62809.75;5019515;28;20085;-93
2021/06/04 09:55:48;;;;;;;18.23;10.65;;;;;;;-150.07;44.80;62828.59;5017001;28;20028;-89
2021/06/04 09:58:14;;;;;;;27.20;12.00;;;;;;;-150.07;44.44;62826.50;5032152;28;20021;-92
2021/06/04 10:00:43;;;;;;;18.92;11.43;;;;;;;-150.07;45.33;62734.41;5028386;28;20021;-92
2021/06/04 10:03:16;;;;;;;26.67;11.77;;;;;;;-150.07;45.52;62730.22;5025999;28;20025;-90
2021/06/04 10:05:45;;;;;;;25.85;11.65;;;;;;;-150.07;45.65;62456.03;5015002;28;20025;-88
2021/06/04 10:08:29;;;;;;;25.50;11.45;;;;;;;-150.07;45.77;62721.84;5019483;28;20116;-87
2021/06/04 10:11:13;;;;;;;22.08;10.77;;;;;;;-150.07;46.12;62711.38;5012762;28;20026;-86
2021/06/04 10:14:09;;;;;;;19.27;10.77;;;;;;;-150.07;46.68;62659.03;5005568;28;20031;-86
2021/06/04 10:16:58;;;;;;;16.13;10.25;;;;;;;-150.07;47.06;62638.13;4998442;28;20023;-85
2021/06/04 10:19:39;;;;;;;18.67;10.70;;;;;;;-150.07;46.93;62357.66;5019719;28;20034;-87
2021/06/04 10:22:06;;;;;;;25.75;11.18;;;;;;;-150.07;47.19;62692.53;5011871;28;20133;-87
2021/06/04 10:24:46;;;;;;;14.40;10.85;;;;;;;-150.07;47.40;62659.03;5022649;28;20030;-88
2021/06/04 10:27:36;;;;;;;23.20;11.77;;;;;;;-150.07;47.24;63337.28;5025484;28;20030;-89
2021/06/04 10:30:35;;;;;;;21.25;12.52;;;;;;;-150.07;47.27;62631.84;5038331;28;20024;-87
2021/06/04 10:33:14;;;;;;;24.85;11.93;;;;;;;-150.07;47.99;62638.13;5029270;28;20045;-86
2021/06/04 10:36:01;;;;;;;17.13;13.05;;;;;;;-150.07;48.43;62571.13;5013296;28;20026;-86
2021/06/04 10:38:38;;;;;;;21.80;12.13;;;;;;;-150.07;48.69;62319.97;5004065;28;20072;-87
2021/06/04 10:41:11;;;;;;;27.20;13.73;;;;;;;-150.07;48.71;62361.84;5020195;28;20084;-86
2021/06/04 10:43:50;;;;;;;19.88;11.80;;;;;;;-150.07;49.45;62319.97;5003791;28;20030;-88
2021/06/04 10:46:53;;;;;;;25.57;12.83;;;;;;;-150.07;50.41;62571.13;5014932;28;20041;-86
2021/06/04 10:49:45;;;;;;;17.88;12.65;;;;;;;-150.07;51.18;62550.22;5014113;28;20064;-87
2021/06/04 10:52:23;;;;;;;22.83;13.77;;;;;;;-150.07;51.38;62577.41;5006084;28;20034;-89
2021/06/04 10:54:59;;;;;;;19.63;13.60;;;;;;;-150.07;52.03;62529.28;5016908;28;20446;-87
2021/06/04 10:58:04;;;;;;;23.92;13.38;;;;;;;-150.07;52.21;63316.34;5013257;28;20038;-89
2021/06/04 11:00:55;;;;;;;23.02;12.85;;;;;;;-150.07;52.52;62393.22;5012702;28;20040;-87
2021/06/04 11:03:43;;;;;;;20.40;11.65;;;;;;;-150.07;52.65;62550.22;5010433;28;20034;-85
2021/06/04 11:06:29;;;;;;;25.13;13.50;;;;;;;-150.07;52.81;61976.75;5008069;28;20029;-93
2021/06/04 11:19:38;;;;;;;31.13;17.02;;;;;;;-150.07;53.30;62474.84;5195734;22;20045;-87
2021/06/04 11:22:46;;;;;;;19.77;13.30;;;;;;;-150.07;53.35;62424.63;4984921;28;20034;-79
2021/06/04 11:25:21;;;;;;;27.17;14.15;;;;;;;-150.07;53.38;62491.59;4984342;28;20049;-83
2021/06/04 11:27:52;;;;;;;28.48;16.90;;;;;;;-150.07;53.56;62242.53;4995301;28;20026;-83
2021/06/04 11:30:26;;;;;;;23.63;14.73;;;;;;;-150.07;53.32;62409.97;4996374;28;20394;-80
2021/06/04 11:33:05;;;;;;;35.20;15.02;;;;;;;-150.07;53.68;62416.25;5008448;28;20034;-87
2021/06/04 11:36:10;;;;;;;24.90;16.48;;;;;;;-150.07;53.66;62190.22;5014384;28;20037;-91
2021/06/04 11:38:40;;;;;;;22.90;15.77;;;;;;;-150.07;53.92;62416.25;5006262;28;20119;-87
2021/06/04 11:41:45;;;;;;;27.90;16.10;;;;;;;-150.07;54.20;62349.28;4985397;28;20097;-89